Ben Lomond, Arkansas
Current Conditions -  °F | °C
As of 6:53 PM on Tuesday 21 Oct 2014 (Local Time) from KDEQ Reporting Station
Overcast Overcast  
Wind Chill: 69°   Ceiling: 5500
Heat Index: 69°   Visibility: 7mi
Dew Point: 66°   Wind: 0mph
Humidity: 90%   Direction: NA
Pressure: 30.01"   Gusts: NA
Location:  33.84°N, 94.12°W
Report Text: KDEQ 212353Z AUTO 00000KT 7SM BKN055 OVC065 21/19 A3001 RMK AO2 SLP160 T02060189 10278 20206 53001
Loading
Personal Weather Stations






























Interactive Weather Map
Tropical Storm Tracking
New forecast layout! Learn more

10-Day Weather Forecast

Advertisements
Track Severe Weather on mobile